sensor_id;sensor_type;location;lat;lon;timestamp;P1;durP1;ratioP1;P2;durP2;ratioP2
53010;SDS011;42803;55.762;38.084;2023-04-24T00:00:09;22.40;;;7.45;;
53010;SDS011;42803;55.762;38.084;2023-04-24T00:02:39;18.40;;;7.13;;
53010;SDS011;42803;55.762;38.084;2023-04-24T00:05:08;17.55;;;6.82;;
53010;SDS011;42803;55.762;38.084;2023-04-24T00:07:37;16.63;;;7.30;;
53010;SDS011;42803;55.762;38.084;2023-04-24T00:10:07;18.40;;;7.28;;
53010;SDS011;42803;55.762;38.084;2023-04-24T00:12:38;15.75;;;7.03;;
53010;SDS011;42803;55.762;38.084;2023-04-24T00:15:08;16.95;;;7.10;;
53010;SDS011;42803;55.762;38.084;2023-04-24T00:17:37;19.52;;;7.40;;
53010;SDS011;42803;55.762;38.084;2023-04-24T00:20:07;15.05;;;6.97;;
53010;SDS011;42803;55.762;38.084;2023-04-24T00:22:37;19.23;;;6.95;;
53010;SDS011;42803;55.762;38.084;2023-04-24T00:25:07;13.68;;;6.22;;
53010;SDS011;42803;55.762;38.084;2023-04-24T00:27:37;17.10;;;6.82;;
53010;SDS011;42803;55.762;38.084;2023-04-24T00:30:07;15.00;;;6.68;;
53010;SDS011;42803;55.762;38.084;2023-04-24T00:32:37;14.95;;;5.90;;
53010;SDS011;42803;55.762;38.084;2023-04-24T00:35:07;18.92;;;7.47;;
53010;SDS011;42803;55.762;38.084;2023-04-24T00:37:36;14.70;;;6.55;;
53010;SDS011;42803;55.762;38.084;2023-04-24T00:40:05;27.30;;;7.15;;
53010;SDS011;42803;55.762;38.084;2023-04-24T00:42:35;20.52;;;7.25;;
53010;SDS011;42803;55.762;38.084;2023-04-24T00:45:07;17.58;;;6.97;;
53010;SDS011;42803;55.762;38.084;2023-04-24T00:47:36;16.83;;;7.22;;
53010;SDS011;42803;55.762;38.084;2023-04-24T00:50:06;16.70;;;6.18;;
53010;SDS011;42803;55.762;38.084;2023-04-24T00:52:36;17.33;;;5.95;;
53010;SDS011;42803;55.762;38.084;2023-04-24T00:55:08;14.90;;;6.10;;
53010;SDS011;42803;55.762;38.084;2023-04-24T00:57:38;15.13;;;6.10;;
53010;SDS011;42803;55.762;38.084;2023-04-24T01:00:09;16.13;;;6.18;;
53010;SDS011;42803;55.762;38.084;2023-04-24T01:02:39;14.93;;;6.13;;
53010;SDS011;42803;55.762;38.084;2023-04-24T01:05:12;17.25;;;6.88;;
53010;SDS011;42803;55.762;38.084;2023-04-24T01:07:43;17.83;;;6.80;;
53010;SDS011;42803;55.762;38.084;2023-04-24T01:10:15;18.55;;;6.70;;
53010;SDS011;42803;55.762;38.084;2023-04-24T01:12:47;16.60;;;7.53;;
53010;SDS011;42803;55.762;38.084;2023-04-24T01:15:17;16.73;;;7.07;;
53010;SDS011;42803;55.762;38.084;2023-04-24T01:17:47;18.15;;;7.07;;
53010;SDS011;42803;55.762;38.084;2023-04-24T01:20:16;16.88;;;6.80;;
53010;SDS011;42803;55.762;38.084;2023-04-24T01:22:47;17.83;;;6.63;;
53010;SDS011;42803;55.762;38.084;2023-04-24T01:25:16;14.20;;;6.32;;
53010;SDS011;42803;55.762;38.084;2023-04-24T01:27:46;18.30;;;6.60;;
53010;SDS011;42803;55.762;38.084;2023-04-24T01:30:15;15.55;;;7.18;;
53010;SDS011;42803;55.762;38.084;2023-04-24T01:32:44;20.35;;;6.97;;
53010;SDS011;42803;55.762;38.084;2023-04-24T01:35:14;14.20;;;7.65;;
53010;SDS011;42803;55.762;38.084;2023-04-24T01:37:43;18.95;;;7.50;;
53010;SDS011;42803;55.762;38.084;2023-04-24T01:40:14;18.85;;;7.63;;
53010;SDS011;42803;55.762;38.084;2023-04-24T01:42:43;22.00;;;7.82;;
53010;SDS011;42803;55.762;38.084;2023-04-24T01:45:13;19.42;;;7.15;;
53010;SDS011;42803;55.762;38.084;2023-04-24T01:47:42;20.83;;;7.90;;
53010;SDS011;42803;55.762;38.084;2023-04-24T01:50:12;16.17;;;7.18;;
53010;SDS011;42803;55.762;38.084;2023-04-24T01:52:42;17.85;;;6.95;;
53010;SDS011;42803;55.762;38.084;2023-04-24T01:55:11;19.85;;;7.50;;
53010;SDS011;42803;55.762;38.084;2023-04-24T01:57:41;23.83;;;8.68;;
53010;SDS011;42803;55.762;38.084;2023-04-24T02:00:11;15.23;;;6.97;;
53010;SDS011;42803;55.762;38.084;2023-04-24T02:02:41;25.50;;;7.78;;
53010;SDS011;42803;55.762;38.084;2023-04-24T02:05:14;19.10;;;7.88;;
53010;SDS011;42803;55.762;38.084;2023-04-24T02:07:43;17.17;;;7.78;;
53010;SDS011;42803;55.762;38.084;2023-04-24T02:10:13;18.83;;;8.30;;
53010;SDS011;42803;55.762;38.084;2023-04-24T02:12:44;19.52;;;8.00;;
53010;SDS011;42803;55.762;38.084;2023-04-24T02:15:15;18.67;;;7.93;;
53010;SDS011;42803;55.762;38.084;2023-04-24T02:17:45;20.50;;;7.80;;
53010;SDS011;42803;55.762;38.084;2023-04-24T02:20:14;23.20;;;7.47;;
53010;SDS011;42803;55.762;38.084;2023-04-24T02:22:44;16.95;;;8.30;;
53010;SDS011;42803;55.762;38.084;2023-04-24T02:25:13;20.25;;;8.32;;
53010;SDS011;42803;55.762;38.084;2023-04-24T02:27:43;23.75;;;7.80;;
53010;SDS011;42803;55.762;38.084;2023-04-24T02:30:13;21.48;;;8.80;;
53010;SDS011;42803;55.762;38.084;2023-04-24T02:32:42;21.73;;;7.95;;
53010;SDS011;42803;55.762;38.084;2023-04-24T02:35:11;17.90;;;7.63;;
53010;SDS011;42803;55.762;38.084;2023-04-24T02:37:41;20.35;;;8.00;;
53010;SDS011;42803;55.762;38.084;2023-04-24T02:40:12;15.95;;;7.70;;
53010;SDS011;42803;55.762;38.084;2023-04-24T02:42:41;24.75;;;8.98;;
53010;SDS011;42803;55.762;38.084;2023-04-24T02:45:11;14.80;;;7.65;;
53010;SDS011;42803;55.762;38.084;2023-04-24T02:47:40;20.58;;;8.43;;
53010;SDS011;42803;55.762;38.084;2023-04-24T02:50:09;18.27;;;8.13;;
53010;SDS011;42803;55.762;38.084;2023-04-24T02:52:38;20.38;;;8.20;;
53010;SDS011;42803;55.762;38.084;2023-04-24T02:55:08;16.95;;;7.57;;
53010;SDS011;42803;55.762;38.084;2023-04-24T02:57:37;28.90;;;8.65;;
53010;SDS011;42803;55.762;38.084;2023-04-24T03:00:07;17.10;;;7.68;;
53010;SDS011;42803;55.762;38.084;2023-04-24T03:02:38;19.25;;;9.20;;
53010;SDS011;42803;55.762;38.084;2023-04-24T03:05:07;17.10;;;7.80;;
53010;SDS011;42803;55.762;38.084;2023-04-24T03:07:39;16.83;;;8.18;;
53010;SDS011;42803;55.762;38.084;2023-04-24T03:10:08;20.42;;;8.52;;
53010;SDS011;42803;55.762;38.084;2023-04-24T03:12:38;14.25;;;7.18;;
53010;SDS011;42803;55.762;38.084;2023-04-24T03:15:07;15.30;;;7.38;;
53010;SDS011;42803;55.762;38.084;2023-04-24T03:17:38;15.38;;;7.95;;
53010;SDS011;42803;55.762;38.084;2023-04-24T03:20:08;20.05;;;8.13;;
53010;SDS011;42803;55.762;38.084;2023-04-24T03:22:37;17.38;;;7.80;;
53010;SDS011;42803;55.762;38.084;2023-04-24T03:25:08;17.92;;;7.75;;
53010;SDS011;42803;55.762;38.084;2023-04-24T03:27:38;15.15;;;7.00;;
53010;SDS011;42803;55.762;38.084;2023-04-24T03:30:33;14.50;;;8.00;;
53010;SDS011;42803;55.762;38.084;2023-04-24T03:33:05;20.10;;;7.88;;
53010;SDS011;42803;55.762;38.084;2023-04-24T03:35:38;16.38;;;7.45;;
53010;SDS011;42803;55.762;38.084;2023-04-24T03:38:09;24.45;;;8.90;;
53010;SDS011;42803;55.762;38.084;2023-04-24T03:40:39;17.95;;;7.32;;
53010;SDS011;42803;55.762;38.084;2023-04-24T03:43:31;22.63;;;7.88;;
53010;SDS011;42803;55.762;38.084;2023-04-24T03:46:01;15.82;;;7.80;;
53010;SDS011;42803;55.762;38.084;2023-04-24T03:48:35;18.17;;;7.35;;
53010;SDS011;42803;55.762;38.084;2023-04-24T03:51:05;24.35;;;8.07;;
53010;SDS011;42803;55.762;38.084;2023-04-24T03:53:36;16.70;;;7.40;;
53010;SDS011;42803;55.762;38.084;2023-04-24T03:56:07;20.30;;;9.07;;
53010;SDS011;42803;55.762;38.084;2023-04-24T03:58:37;16.02;;;6.68;;
53010;SDS011;42803;55.762;38.084;2023-04-24T04:01:06;13.45;;;7.03;;
53010;SDS011;42803;55.762;38.084;2023-04-24T04:03:47;16.98;;;6.88;;
53010;SDS011;42803;55.762;38.084;2023-04-24T04:06:20;18.23;;;7.88;;
53010;SDS011;42803;55.762;38.084;2023-04-24T04:08:51;15.43;;;7.70;;
53010;SDS011;42803;55.762;38.084;2023-04-24T04:11:20;16.00;;;7.75;;
53010;SDS011;42803;55.762;38.084;2023-04-24T04:13:50;18.75;;;8.13;;
53010;SDS011;42803;55.762;38.084;2023-04-24T04:16:21;23.30;;;8.18;;
53010;SDS011;42803;55.762;38.084;2023-04-24T04:21:26;15.68;;;8.65;;
53010;SDS011;42803;55.762;38.084;2023-04-24T04:24:05;17.65;;;8.55;;
53010;SDS011;42803;55.762;38.084;2023-04-24T04:26:38;21.80;;;8.85;;
53010;SDS011;42803;55.762;38.084;2023-04-24T04:29:10;19.38;;;8.07;;
53010;SDS011;42803;55.762;38.084;2023-04-24T04:31:42;14.88;;;7.65;;
53010;SDS011;42803;55.762;38.084;2023-04-24T04:34:14;15.75;;;7.35;;
53010;SDS011;42803;55.762;38.084;2023-04-24T04:36:43;22.38;;;8.85;;
53010;SDS011;42803;55.762;38.084;2023-04-24T04:39:51;17.17;;;7.90;;
53010;SDS011;42803;55.762;38.084;2023-04-24T04:42:24;21.48;;;8.40;;
53010;SDS011;42803;55.762;38.084;2023-04-24T04:44:54;22.67;;;8.65;;
53010;SDS011;42803;55.762;38.084;2023-04-24T04:47:34;20.20;;;9.52;;
53010;SDS011;42803;55.762;38.084;2023-04-24T04:50:05;18.45;;;7.82;;
53010;SDS011;42803;55.762;38.084;2023-04-24T04:52:35;21.08;;;8.43;;
53010;SDS011;42803;55.762;38.084;2023-04-24T04:55:15;15.93;;;8.32;;
53010;SDS011;42803;55.762;38.084;2023-04-24T04:58:07;12.45;;;7.65;;
53010;SDS011;42803;55.762;38.084;2023-04-24T05:00:36;19.65;;;8.73;;
53010;SDS011;42803;55.762;38.084;2023-04-24T05:03:26;18.10;;;7.50;;
53010;SDS011;42803;55.762;38.084;2023-04-24T05:06:05;18.13;;;7.90;;
53010;SDS011;42803;55.762;38.084;2023-04-24T05:08:38;16.57;;;7.87;;
53010;SDS011;42803;55.762;38.084;2023-04-24T05:11:11;18.27;;;7.93;;
53010;SDS011;42803;55.762;38.084;2023-04-24T05:13:41;18.70;;;8.18;;
53010;SDS011;42803;55.762;38.084;2023-04-24T05:16:33;16.55;;;7.68;;
53010;SDS011;42803;55.762;38.084;2023-04-24T05:19:05;16.27;;;7.75;;
53010;SDS011;42803;55.762;38.084;2023-04-24T05:21:40;17.88;;;7.80;;
53010;SDS011;42803;55.762;38.084;2023-04-24T05:24:10;14.70;;;7.25;;
53010;SDS011;42803;55.762;38.084;2023-04-24T05:27:05;14.15;;;8.85;;
53010;SDS011;42803;55.762;38.084;2023-04-24T05:29:38;18.35;;;8.75;;
53010;SDS011;42803;55.762;38.084;2023-04-24T05:32:09;17.17;;;8.27;;
53010;SDS011;42803;55.762;38.084;2023-04-24T05:34:38;25.75;;;9.20;;
53010;SDS011;42803;55.762;38.084;2023-04-24T05:37:10;15.38;;;9.23;;
53010;SDS011;42803;55.762;38.084;2023-04-24T05:39:39;19.02;;;8.73;;
53010;SDS011;42803;55.762;38.084;2023-04-24T05:42:09;17.08;;;8.80;;
53010;SDS011;42803;55.762;38.084;2023-04-24T05:44:38;20.02;;;8.98;;
53010;SDS011;42803;55.762;38.084;2023-04-24T05:47:07;17.42;;;8.40;;
53010;SDS011;42803;55.762;38.084;2023-04-24T05:49:36;19.52;;;8.73;;
53010;SDS011;42803;55.762;38.084;2023-04-24T05:52:10;20.35;;;9.25;;
53010;SDS011;42803;55.762;38.084;2023-04-24T05:57:55;15.65;;;7.43;;
53010;SDS011;42803;55.762;38.084;2023-04-24T06:00:25;19.45;;;8.07;;
53010;SDS011;42803;55.762;38.084;2023-04-24T06:03:02;16.67;;;7.80;;
53010;SDS011;42803;55.762;38.084;2023-04-24T06:05:32;19.77;;;7.65;;
53010;SDS011;42803;55.762;38.084;2023-04-24T06:08:04;14.73;;;6.75;;
53010;SDS011;42803;55.762;38.084;2023-04-24T06:13:25;17.48;;;6.35;;
53010;SDS011;42803;55.762;38.084;2023-04-24T06:16:20;19.77;;;6.28;;
53010;SDS011;42803;55.762;38.084;2023-04-24T06:18:55;13.68;;;6.85;;
53010;SDS011;42803;55.762;38.084;2023-04-24T06:21:25;10.98;;;5.75;;
53010;SDS011;42803;55.762;38.084;2023-04-24T06:24:15;12.48;;;5.68;;
53010;SDS011;42803;55.762;38.084;2023-04-24T06:26:44;17.20;;;6.57;;
53010;SDS011;42803;55.762;38.084;2023-04-24T06:29:13;11.93;;;6.03;;
53010;SDS011;42803;55.762;38.084;2023-04-24T06:31:42;13.32;;;5.13;;
53010;SDS011;42803;55.762;38.084;2023-04-24T06:34:12;9.60;;;5.68;;
53010;SDS011;42803;55.762;38.084;2023-04-24T06:36:41;10.55;;;5.65;;
53010;SDS011;42803;55.762;38.084;2023-04-24T06:39:10;9.00;;;5.18;;
53010;SDS011;42803;55.762;38.084;2023-04-24T06:41:41;12.35;;;5.75;;
53010;SDS011;42803;55.762;38.084;2023-04-24T06:44:18;11.50;;;5.20;;
53010;SDS011;42803;55.762;38.084;2023-04-24T06:46:47;10.55;;;5.78;;
53010;SDS011;42803;55.762;38.084;2023-04-24T06:49:17;9.82;;;5.00;;
53010;SDS011;42803;55.762;38.084;2023-04-24T06:54:36;12.73;;;4.90;;
53010;SDS011;42803;55.762;38.084;2023-04-24T06:57:07;13.48;;;5.07;;
53010;SDS011;42803;55.762;38.084;2023-04-24T06:59:38;14.70;;;4.90;;
53010;SDS011;42803;55.762;38.084;2023-04-24T07:02:07;9.07;;;4.95;;
53010;SDS011;42803;55.762;38.084;2023-04-24T07:04:36;9.27;;;4.60;;
53010;SDS011;42803;55.762;38.084;2023-04-24T07:07:06;10.45;;;5.13;;
53010;SDS011;42803;55.762;38.084;2023-04-24T07:09:36;10.00;;;4.50;;
53010;SDS011;42803;55.762;38.084;2023-04-24T07:12:09;12.63;;;4.82;;
53010;SDS011;42803;55.762;38.084;2023-04-24T07:14:39;8.07;;;4.50;;
53010;SDS011;42803;55.762;38.084;2023-04-24T07:17:09;11.25;;;4.15;;
53010;SDS011;42803;55.762;38.084;2023-04-24T07:19:56;9.15;;;3.70;;
53010;SDS011;42803;55.762;38.084;2023-04-24T07:22:25;8.25;;;3.13;;
53010;SDS011;42803;55.762;38.084;2023-04-24T07:24:55;7.82;;;3.45;;
53010;SDS011;42803;55.762;38.084;2023-04-24T07:27:25;8.07;;;3.20;;
53010;SDS011;42803;55.762;38.084;2023-04-24T07:29:55;7.80;;;3.13;;
53010;SDS011;42803;55.762;38.084;2023-04-24T07:32:25;7.63;;;3.20;;
53010;SDS011;42803;55.762;38.084;2023-04-24T07:34:54;5.25;;;2.63;;
53010;SDS011;42803;55.762;38.084;2023-04-24T07:37:23;7.38;;;3.10;;
53010;SDS011;42803;55.762;38.084;2023-04-24T07:39:52;6.35;;;3.55;;
53010;SDS011;42803;55.762;38.084;2023-04-24T07:42:21;7.18;;;3.67;;
53010;SDS011;42803;55.762;38.084;2023-04-24T07:44:52;9.27;;;3.40;;
53010;SDS011;42803;55.762;38.084;2023-04-24T07:47:21;5.15;;;3.67;;
53010;SDS011;42803;55.762;38.084;2023-04-24T07:49:50;6.35;;;3.05;;
53010;SDS011;42803;55.762;38.084;2023-04-24T07:52:19;13.95;;;3.33;;
53010;SDS011;42803;55.762;38.084;2023-04-24T07:54:49;7.47;;;3.75;;
53010;SDS011;42803;55.762;38.084;2023-04-24T07:57:20;5.57;;;3.25;;
53010;SDS011;42803;55.762;38.084;2023-04-24T07:59:49;6.25;;;3.00;;
53010;SDS011;42803;55.762;38.084;2023-04-24T08:02:19;8.80;;;3.50;;
53010;SDS011;42803;55.762;38.084;2023-04-24T08:04:54;9.18;;;4.05;;
53010;SDS011;42803;55.762;38.084;2023-04-24T08:07:26;7.70;;;3.40;;
53010;SDS011;42803;55.762;38.084;2023-04-24T08:09:55;15.15;;;3.33;;
53010;SDS011;42803;55.762;38.084;2023-04-24T08:12:24;6.60;;;2.88;;
53010;SDS011;42803;55.762;38.084;2023-04-24T08:14:53;12.70;;;3.75;;
53010;SDS011;42803;55.762;38.084;2023-04-24T08:17:24;11.40;;;3.08;;
53010;SDS011;42803;55.762;38.084;2023-04-24T08:19:53;4.63;;;2.90;;
53010;SDS011;42803;55.762;38.084;2023-04-24T08:22:32;5.95;;;3.70;;
53010;SDS011;42803;55.762;38.084;2023-04-24T08:25:02;7.32;;;3.40;;
53010;SDS011;42803;55.762;38.084;2023-04-24T08:27:32;10.70;;;3.92;;
53010;SDS011;42803;55.762;38.084;2023-04-24T08:30:02;5.55;;;3.05;;
53010;SDS011;42803;55.762;38.084;2023-04-24T08:32:36;8.02;;;3.17;;
53010;SDS011;42803;55.762;38.084;2023-04-24T08:35:23;4.97;;;3.20;;
53010;SDS011;42803;55.762;38.084;2023-04-24T08:37:52;8.48;;;2.92;;
53010;SDS011;42803;55.762;38.084;2023-04-24T08:40:22;6.20;;;3.47;;
53010;SDS011;42803;55.762;38.084;2023-04-24T08:42:56;6.75;;;2.90;;
53010;SDS011;42803;55.762;38.084;2023-04-24T08:45:25;18.10;;;3.67;;
53010;SDS011;42803;55.762;38.084;2023-04-24T08:47:56;7.35;;;3.35;;
53010;SDS011;42803;55.762;38.084;2023-04-24T08:50:27;4.38;;;2.90;;
53010;SDS011;42803;55.762;38.084;2023-04-24T08:52:57;7.75;;;3.38;;
53010;SDS011;42803;55.762;38.084;2023-04-24T08:55:26;8.18;;;3.30;;
53010;SDS011;42803;55.762;38.084;2023-04-24T08:57:59;7.60;;;3.00;;
53010;SDS011;42803;55.762;38.084;2023-04-24T09:00:29;5.95;;;3.55;;
53010;SDS011;42803;55.762;38.084;2023-04-24T09:03:00;6.85;;;3.55;;
53010;SDS011;42803;55.762;38.084;2023-04-24T09:05:31;6.00;;;3.30;;
53010;SDS011;42803;55.762;38.084;2023-04-24T09:10:52;7.68;;;3.40;;
53010;SDS011;42803;55.762;38.084;2023-04-24T09:13:22;5.05;;;3.05;;
53010;SDS011;42803;55.762;38.084;2023-04-24T09:15:52;6.72;;;3.20;;
53010;SDS011;42803;55.762;38.084;2023-04-24T09:18:23;13.23;;;3.58;;
53010;SDS011;42803;55.762;38.084;2023-04-24T09:20:58;3.88;;;2.95;;
53010;SDS011;42803;55.762;38.084;2023-04-24T09:23:29;5.82;;;3.30;;
53010;SDS011;42803;55.762;38.084;2023-04-24T09:26:01;6.53;;;3.50;;
53010;SDS011;42803;55.762;38.084;2023-04-24T09:28:35;9.90;;;4.70;;
53010;SDS011;42803;55.762;38.084;2023-04-24T09:31:06;10.98;;;3.95;;
53010;SDS011;42803;55.762;38.084;2023-04-24T09:33:38;6.07;;;3.50;;
53010;SDS011;42803;55.762;38.084;2023-04-24T09:36:08;8.15;;;3.75;;
53010;SDS011;42803;55.762;38.084;2023-04-24T09:38:38;6.35;;;3.08;;
53010;SDS011;42803;55.762;38.084;2023-04-24T09:41:07;6.78;;;3.38;;
53010;SDS011;42803;55.762;38.084;2023-04-24T09:46:10;8.13;;;3.70;;
53010;SDS011;42803;55.762;38.084;2023-04-24T09:48:42;8.15;;;3.78;;
53010;SDS011;42803;55.762;38.084;2023-04-24T09:51:11;6.85;;;3.63;;
53010;SDS011;42803;55.762;38.084;2023-04-24T09:53:45;5.32;;;2.72;;
53010;SDS011;42803;55.762;38.084;2023-04-24T09:56:21;6.00;;;3.50;;
53010;SDS011;42803;55.762;38.084;2023-04-24T09:58:54;6.38;;;3.38;;
53010;SDS011;42803;55.762;38.084;2023-04-24T10:01:29;9.82;;;3.78;;
53010;SDS011;42803;55.762;38.084;2023-04-24T10:04:00;5.72;;;3.72;;
53010;SDS011;42803;55.762;38.084;2023-04-24T10:06:31;10.98;;;3.53;;
53010;SDS011;42803;55.762;38.084;2023-04-24T10:09:02;11.18;;;3.75;;
53010;SDS011;42803;55.762;38.084;2023-04-24T10:11:32;6.28;;;3.17;;
53010;SDS011;42803;55.762;38.084;2023-04-24T10:14:01;9.30;;;3.88;;
53010;SDS011;42803;55.762;38.084;2023-04-24T10:16:31;8.05;;;3.80;;
53010;SDS011;42803;55.762;38.084;2023-04-24T10:19:01;7.55;;;3.33;;
53010;SDS011;42803;55.762;38.084;2023-04-24T10:21:32;6.00;;;3.15;;
53010;SDS011;42803;55.762;38.084;2023-04-24T10:24:01;4.78;;;3.20;;
53010;SDS011;42803;55.762;38.084;2023-04-24T10:26:32;9.35;;;3.55;;
53010;SDS011;42803;55.762;38.084;2023-04-24T10:29:05;15.63;;;3.88;;
53010;SDS011;42803;55.762;38.084;2023-04-24T10:31:37;6.38;;;3.50;;
53010;SDS011;42803;55.762;38.084;2023-04-24T10:34:08;5.07;;;3.22;;
53010;SDS011;42803;55.762;38.084;2023-04-24T10:36:39;7.20;;;3.38;;
53010;SDS011;42803;55.762;38.084;2023-04-24T10:39:13;5.03;;;3.50;;
53010;SDS011;42803;55.762;38.084;2023-04-24T10:41:43;6.45;;;2.95;;
53010;SDS011;42803;55.762;38.084;2023-04-24T10:44:13;7.38;;;3.03;;
53010;SDS011;42803;55.762;38.084;2023-04-24T10:46:44;5.90;;;3.53;;
53010;SDS011;42803;55.762;38.084;2023-04-24T10:49:17;9.85;;;3.70;;
53010;SDS011;42803;55.762;38.084;2023-04-24T10:52:00;9.32;;;3.80;;
53010;SDS011;42803;55.762;38.084;2023-04-24T10:54:36;11.25;;;3.78;;
53010;SDS011;42803;55.762;38.084;2023-04-24T10:57:28;7.28;;;3.70;;
53010;SDS011;42803;55.762;38.084;2023-04-24T11:00:13;4.38;;;3.13;;
53010;SDS011;42803;55.762;38.084;2023-04-24T11:02:48;4.00;;;3.08;;
53010;SDS011;42803;55.762;38.084;2023-04-24T11:05:21;6.13;;;3.25;;
53010;SDS011;42803;55.762;38.084;2023-04-24T11:10:39;4.13;;;2.60;;
53010;SDS011;42803;55.762;38.084;2023-04-24T11:13:09;4.18;;;2.72;;
53010;SDS011;42803;55.762;38.084;2023-04-24T11:15:41;7.78;;;2.90;;
53010;SDS011;42803;55.762;38.084;2023-04-24T11:18:14;8.13;;;3.17;;
53010;SDS011;42803;55.762;38.084;2023-04-24T11:20:45;4.82;;;3.13;;
53010;SDS011;42803;55.762;38.084;2023-04-24T11:23:15;7.32;;;3.20;;
53010;SDS011;42803;55.762;38.084;2023-04-24T11:25:45;8.88;;;3.00;;
53010;SDS011;42803;55.762;38.084;2023-04-24T11:28:44;7.07;;;3.22;;
53010;SDS011;42803;55.762;38.084;2023-04-24T11:34:10;5.97;;;2.53;;
53010;SDS011;42803;55.762;38.084;2023-04-24T11:39:14;5.47;;;2.67;;
53010;SDS011;42803;55.762;38.084;2023-04-24T11:41:44;6.72;;;2.40;;
53010;SDS011;42803;55.762;38.084;2023-04-24T11:44:14;5.50;;;2.28;;
53010;SDS011;42803;55.762;38.084;2023-04-24T11:46:49;6.40;;;2.83;;
53010;SDS011;42803;55.762;38.084;2023-04-24T11:49:18;5.10;;;2.55;;
53010;SDS011;42803;55.762;38.084;2023-04-24T11:51:48;8.15;;;2.92;;
53010;SDS011;42803;55.762;38.084;2023-04-24T11:54:20;4.70;;;2.58;;
53010;SDS011;42803;55.762;38.084;2023-04-24T11:56:50;7.10;;;2.50;;
53010;SDS011;42803;55.762;38.084;2023-04-24T11:59:19;12.38;;;2.90;;
53010;SDS011;42803;55.762;38.084;2023-04-24T12:01:49;4.88;;;2.63;;
53010;SDS011;42803;55.762;38.084;2023-04-24T12:04:18;8.80;;;3.08;;
53010;SDS011;42803;55.762;38.084;2023-04-24T12:07:00;4.53;;;2.78;;
53010;SDS011;42803;55.762;38.084;2023-04-24T12:09:39;8.63;;;2.70;;
53010;SDS011;42803;55.762;38.084;2023-04-24T12:12:10;7.15;;;2.65;;
53010;SDS011;42803;55.762;38.084;2023-04-24T12:14:44;6.03;;;3.13;;
53010;SDS011;42803;55.762;38.084;2023-04-24T12:17:13;4.32;;;2.40;;
53010;SDS011;42803;55.762;38.084;2023-04-24T12:19:46;6.53;;;2.65;;
53010;SDS011;42803;55.762;38.084;2023-04-24T12:22:17;7.68;;;2.42;;
53010;SDS011;42803;55.762;38.084;2023-04-24T12:24:56;5.10;;;2.42;;
53010;SDS011;42803;55.762;38.084;2023-04-24T12:27:31;6.13;;;2.42;;
53010;SDS011;42803;55.762;38.084;2023-04-24T12:30:02;3.65;;;2.38;;
53010;SDS011;42803;55.762;38.084;2023-04-24T12:32:33;6.32;;;2.50;;
53010;SDS011;42803;55.762;38.084;2023-04-24T12:35:04;6.38;;;2.85;;
53010;SDS011;42803;55.762;38.084;2023-04-24T12:37:35;4.63;;;2.95;;
53010;SDS011;42803;55.762;38.084;2023-04-24T12:40:07;5.05;;;2.80;;
53010;SDS011;42803;55.762;38.084;2023-04-24T12:42:41;8.93;;;2.83;;
53010;SDS011;42803;55.762;38.084;2023-04-24T12:45:12;4.30;;;2.92;;
53010;SDS011;42803;55.762;38.084;2023-04-24T12:52:25;5.57;;;2.53;;
53010;SDS011;42803;55.762;38.084;2023-04-24T12:54:57;5.88;;;2.13;;
53010;SDS011;42803;55.762;38.084;2023-04-24T12:57:29;4.53;;;2.60;;
53010;SDS011;42803;55.762;38.084;2023-04-24T12:59:59;4.90;;;2.83;;
53010;SDS011;42803;55.762;38.084;2023-04-24T13:05:04;6.70;;;3.13;;
53010;SDS011;42803;55.762;38.084;2023-04-24T13:07:34;8.85;;;2.67;;
53010;SDS011;42803;55.762;38.084;2023-04-24T13:10:05;5.65;;;2.85;;
53010;SDS011;42803;55.762;38.084;2023-04-24T13:17:26;4.13;;;2.40;;
53010;SDS011;42803;55.762;38.084;2023-04-24T13:19:55;6.88;;;2.50;;
53010;SDS011;42803;55.762;38.084;2023-04-24T13:22:24;7.05;;;3.05;;
53010;SDS011;42803;55.762;38.084;2023-04-24T13:24:53;7.82;;;2.70;;
53010;SDS011;42803;55.762;38.084;2023-04-24T13:27:24;3.67;;;2.50;;
53010;SDS011;42803;55.762;38.084;2023-04-24T13:29:54;11.15;;;2.70;;
53010;SDS011;42803;55.762;38.084;2023-04-24T13:32:23;4.85;;;2.50;;
53010;SDS011;42803;55.762;38.084;2023-04-24T13:34:52;8.57;;;2.88;;
53010;SDS011;42803;55.762;38.084;2023-04-24T13:37:21;9.38;;;2.65;;
53010;SDS011;42803;55.762;38.084;2023-04-24T13:39:50;5.03;;;2.60;;
53010;SDS011;42803;55.762;38.084;2023-04-24T13:42:20;4.85;;;2.53;;
53010;SDS011;42803;55.762;38.084;2023-04-24T13:44:51;6.53;;;2.20;;
53010;SDS011;42803;55.762;38.084;2023-04-24T13:47:21;5.55;;;2.78;;
53010;SDS011;42803;55.762;38.084;2023-04-24T13:49:50;7.65;;;2.50;;
53010;SDS011;42803;55.762;38.084;2023-04-24T13:52:21;5.32;;;2.80;;
53010;SDS011;42803;55.762;38.084;2023-04-24T13:54:50;5.47;;;2.55;;
53010;SDS011;42803;55.762;38.084;2023-04-24T13:57:19;6.68;;;2.60;;
53010;SDS011;42803;55.762;38.084;2023-04-24T13:59:49;4.65;;;2.50;;
53010;SDS011;42803;55.762;38.084;2023-04-24T14:02:19;7.13;;;3.10;;
53010;SDS011;42803;55.762;38.084;2023-04-24T14:04:49;5.80;;;3.08;;
53010;SDS011;42803;55.762;38.084;2023-04-24T14:07:19;3.65;;;2.50;;
53010;SDS011;42803;55.762;38.084;2023-04-24T14:09:48;5.10;;;2.30;;
53010;SDS011;42803;55.762;38.084;2023-04-24T14:12:18;4.40;;;2.35;;
53010;SDS011;42803;55.762;38.084;2023-04-24T14:14:48;4.70;;;2.45;;
53010;SDS011;42803;55.762;38.084;2023-04-24T14:17:18;6.13;;;2.13;;
53010;SDS011;42803;55.762;38.084;2023-04-24T14:19:47;7.43;;;2.83;;
53010;SDS011;42803;55.762;38.084;2023-04-24T14:22:17;5.03;;;2.72;;
53010;SDS011;42803;55.762;38.084;2023-04-24T14:24:52;5.57;;;2.47;;
53010;SDS011;42803;55.762;38.084;2023-04-24T14:27:22;9.85;;;2.85;;
53010;SDS011;42803;55.762;38.084;2023-04-24T14:29:51;3.42;;;2.17;;
53010;SDS011;42803;55.762;38.084;2023-04-24T14:32:21;3.97;;;1.77;;
53010;SDS011;42803;55.762;38.084;2023-04-24T14:34:51;6.70;;;2.10;;
53010;SDS011;42803;55.762;38.084;2023-04-24T14:37:20;7.50;;;2.85;;
53010;SDS011;42803;55.762;38.084;2023-04-24T14:39:50;3.63;;;2.40;;
53010;SDS011;42803;55.762;38.084;2023-04-24T14:42:43;6.90;;;3.40;;
53010;SDS011;42803;55.762;38.084;2023-04-24T14:45:12;6.43;;;3.03;;
53010;SDS011;42803;55.762;38.084;2023-04-24T14:47:43;10.30;;;3.00;;
53010;SDS011;42803;55.762;38.084;2023-04-24T14:50:12;9.82;;;3.38;;
53010;SDS011;42803;55.762;38.084;2023-04-24T14:52:42;7.65;;;2.83;;
53010;SDS011;42803;55.762;38.084;2023-04-24T14:55:11;6.63;;;2.78;;
53010;SDS011;42803;55.762;38.084;2023-04-24T14:57:41;6.45;;;2.97;;
53010;SDS011;42803;55.762;38.084;2023-04-24T15:00:10;5.50;;;2.63;;
53010;SDS011;42803;55.762;38.084;2023-04-24T15:02:41;6.05;;;2.63;;
53010;SDS011;42803;55.762;38.084;2023-04-24T15:05:13;10.00;;;3.33;;
53010;SDS011;42803;55.762;38.084;2023-04-24T15:07:43;3.38;;;2.20;;
53010;SDS011;42803;55.762;38.084;2023-04-24T15:10:12;5.80;;;2.63;;
53010;SDS011;42803;55.762;38.084;2023-04-24T15:12:41;6.05;;;2.35;;
53010;SDS011;42803;55.762;38.084;2023-04-24T15:15:11;7.40;;;2.70;;
53010;SDS011;42803;55.762;38.084;2023-04-24T15:17:40;9.13;;;2.97;;
53010;SDS011;42803;55.762;38.084;2023-04-24T15:20:09;3.47;;;2.30;;
53010;SDS011;42803;55.762;38.084;2023-04-24T15:22:40;5.80;;;2.20;;
53010;SDS011;42803;55.762;38.084;2023-04-24T15:25:09;4.93;;;2.78;;
53010;SDS011;42803;55.762;38.084;2023-04-24T15:27:39;7.50;;;2.80;;
53010;SDS011;42803;55.762;38.084;2023-04-24T15:30:09;6.30;;;2.78;;